sensor_id;sensor_type;location;lat;lon;timestamp;P1;durP1;ratioP1;P2;durP2;ratioP2
40755;SDS011;26461;45.630;9.418;2024-03-23T00:53:40;37.50;;;25.75;;
40755;SDS011;26461;45.630;9.418;2024-03-23T00:56:44;41.17;;;23.90;;
40755;SDS011;26461;45.630;9.418;2024-03-23T00:59:48;37.47;;;24.30;;
40755;SDS011;26461;45.630;9.418;2024-03-23T01:02:52;46.90;;;27.17;;
40755;SDS011;26461;45.630;9.418;2024-03-23T01:06:00;41.50;;;24.10;;
40755;SDS011;26461;45.630;9.418;2024-03-23T01:09:05;39.50;;;25.15;;
40755;SDS011;26461;45.630;9.418;2024-03-23T01:12:10;41.88;;;24.83;;
40755;SDS011;26461;45.630;9.418;2024-03-23T01:15:18;43.40;;;24.80;;
40755;SDS011;26461;45.630;9.418;2024-03-23T01:18:22;37.95;;;24.42;;
40755;SDS011;26461;45.630;9.418;2024-03-23T01:21:28;40.03;;;24.58;;
40755;SDS011;26461;45.630;9.418;2024-03-23T01:24:32;53.83;;;27.58;;
40755;SDS011;26461;45.630;9.418;2024-03-23T01:27:36;32.58;;;22.38;;
40755;SDS011;26461;45.630;9.418;2024-03-23T01:30:41;39.80;;;24.73;;
40755;SDS011;26461;45.630;9.418;2024-03-23T01:33:45;40.72;;;23.85;;
40755;SDS011;26461;45.630;9.418;2024-03-23T01:36:49;40.17;;;23.15;;
40755;SDS011;26461;45.630;9.418;2024-03-23T01:39:53;41.60;;;25.65;;
40755;SDS011;26461;45.630;9.418;2024-03-23T01:42:58;43.78;;;26.73;;
40755;SDS011;26461;45.630;9.418;2024-03-23T01:46:05;40.42;;;26.40;;
40755;SDS011;26461;45.630;9.418;2024-03-23T01:49:10;40.67;;;25.02;;
40755;SDS011;26461;45.630;9.418;2024-03-23T01:52:15;41.38;;;25.67;;
40755;SDS011;26461;45.630;9.418;2024-03-23T01:55:19;40.92;;;26.27;;
40755;SDS011;26461;45.630;9.418;2024-03-23T01:58:24;44.10;;;26.38;;
40755;SDS011;26461;45.630;9.418;2024-03-23T02:01:29;44.42;;;25.80;;
40755;SDS011;26461;45.630;9.418;2024-03-23T02:04:33;46.63;;;27.75;;
40755;SDS011;26461;45.630;9.418;2024-03-23T02:07:38;45.20;;;24.77;;
40755;SDS011;26461;45.630;9.418;2024-03-23T02:10:43;42.47;;;25.40;;
40755;SDS011;26461;45.630;9.418;2024-03-23T02:13:47;44.17;;;27.20;;
40755;SDS011;26461;45.630;9.418;2024-03-23T02:16:51;37.60;;;24.17;;
40755;SDS011;26461;45.630;9.418;2024-03-23T02:19:56;41.00;;;26.55;;
40755;SDS011;26461;45.630;9.418;2024-03-23T02:23:01;45.17;;;26.90;;
40755;SDS011;26461;45.630;9.418;2024-03-23T02:26:06;44.67;;;26.30;;
40755;SDS011;26461;45.630;9.418;2024-03-23T02:29:10;43.83;;;25.52;;
40755;SDS011;26461;45.630;9.418;2024-03-23T02:32:14;42.88;;;24.95;;
40755;SDS011;26461;45.630;9.418;2024-03-23T02:35:18;47.70;;;25.15;;
40755;SDS011;26461;45.630;9.418;2024-03-23T02:38:22;40.83;;;24.13;;
40755;SDS011;26461;45.630;9.418;2024-03-23T02:41:26;36.15;;;23.20;;
40755;SDS011;26461;45.630;9.418;2024-03-23T02:44:30;40.22;;;25.85;;
40755;SDS011;26461;45.630;9.418;2024-03-23T02:47:34;41.83;;;26.30;;
40755;SDS011;26461;45.630;9.418;2024-03-23T02:50:38;35.97;;;24.38;;
40755;SDS011;26461;45.630;9.418;2024-03-23T02:53:42;40.78;;;25.08;;
40755;SDS011;26461;45.630;9.418;2024-03-23T02:56:46;39.17;;;25.45;;
40755;SDS011;26461;45.630;9.418;2024-03-23T02:59:51;39.45;;;23.88;;
40755;SDS011;26461;45.630;9.418;2024-03-23T03:02:56;41.60;;;26.02;;
40755;SDS011;26461;45.630;9.418;2024-03-23T03:06:01;41.40;;;26.23;;
40755;SDS011;26461;45.630;9.418;2024-03-23T03:09:05;38.90;;;24.48;;
40755;SDS011;26461;45.630;9.418;2024-03-23T03:12:09;42.28;;;28.10;;
40755;SDS011;26461;45.630;9.418;2024-03-23T03:15:17;45.47;;;26.08;;
40755;SDS011;26461;45.630;9.418;2024-03-23T03:18:21;45.22;;;26.75;;
40755;SDS011;26461;45.630;9.418;2024-03-23T03:21:26;48.28;;;27.48;;
40755;SDS011;26461;45.630;9.418;2024-03-23T03:24:30;42.70;;;25.40;;
40755;SDS011;26461;45.630;9.418;2024-03-23T03:27:35;42.22;;;23.67;;
40755;SDS011;26461;45.630;9.418;2024-03-23T03:30:39;42.95;;;25.38;;
40755;SDS011;26461;45.630;9.418;2024-03-23T03:33:43;41.13;;;25.58;;
40755;SDS011;26461;45.630;9.418;2024-03-23T03:36:47;39.30;;;24.35;;
40755;SDS011;26461;45.630;9.418;2024-03-23T03:39:51;41.45;;;26.25;;
40755;SDS011;26461;45.630;9.418;2024-03-23T03:42:56;43.22;;;23.13;;
40755;SDS011;26461;45.630;9.418;2024-03-23T03:46:00;46.25;;;26.20;;
40755;SDS011;26461;45.630;9.418;2024-03-23T03:49:06;42.47;;;27.63;;
40755;SDS011;26461;45.630;9.418;2024-03-23T03:52:09;44.00;;;26.17;;
40755;SDS011;26461;45.630;9.418;2024-03-23T03:55:17;41.70;;;25.55;;
40755;SDS011;26461;45.630;9.418;2024-03-23T03:58:21;49.13;;;26.48;;
40755;SDS011;26461;45.630;9.418;2024-03-23T04:01:26;45.65;;;27.63;;
40755;SDS011;26461;45.630;9.418;2024-03-23T04:04:30;40.67;;;26.00;;
40755;SDS011;26461;45.630;9.418;2024-03-23T04:07:34;41.22;;;26.30;;
40755;SDS011;26461;45.630;9.418;2024-03-23T04:10:38;46.75;;;24.30;;
40755;SDS011;26461;45.630;9.418;2024-03-23T04:13:43;40.95;;;25.58;;
40755;SDS011;26461;45.630;9.418;2024-03-23T04:16:47;46.75;;;27.50;;
40755;SDS011;26461;45.630;9.418;2024-03-23T04:19:51;40.63;;;23.40;;
40755;SDS011;26461;45.630;9.418;2024-03-23T04:23:00;45.78;;;25.40;;
40755;SDS011;26461;45.630;9.418;2024-03-23T04:26:04;49.00;;;29.17;;
40755;SDS011;26461;45.630;9.418;2024-03-23T04:29:09;38.97;;;25.98;;
40755;SDS011;26461;45.630;9.418;2024-03-23T04:32:13;40.92;;;25.63;;
40755;SDS011;26461;45.630;9.418;2024-03-23T04:35:17;40.80;;;26.13;;
40755;SDS011;26461;45.630;9.418;2024-03-23T04:38:23;41.92;;;26.00;;
40755;SDS011;26461;45.630;9.418;2024-03-23T04:41:28;38.88;;;25.13;;
40755;SDS011;26461;45.630;9.418;2024-03-23T04:44:32;39.58;;;24.67;;
40755;SDS011;26461;45.630;9.418;2024-03-23T04:47:37;40.28;;;24.92;;
40755;SDS011;26461;45.630;9.418;2024-03-23T04:50:42;44.25;;;25.50;;
40755;SDS011;26461;45.630;9.418;2024-03-23T04:53:47;40.97;;;27.00;;
40755;SDS011;26461;45.630;9.418;2024-03-23T04:56:51;41.72;;;26.60;;
40755;SDS011;26461;45.630;9.418;2024-03-23T04:59:55;38.80;;;25.80;;
40755;SDS011;26461;45.630;9.418;2024-03-23T05:03:00;44.78;;;24.73;;
40755;SDS011;26461;45.630;9.418;2024-03-23T05:06:04;41.60;;;25.15;;
40755;SDS011;26461;45.630;9.418;2024-03-23T05:09:10;48.63;;;25.80;;
40755;SDS011;26461;45.630;9.418;2024-03-23T05:12:16;46.67;;;27.25;;
40755;SDS011;26461;45.630;9.418;2024-03-23T05:15:20;43.95;;;26.65;;
40755;SDS011;26461;45.630;9.418;2024-03-23T05:18:25;41.45;;;26.30;;
40755;SDS011;26461;45.630;9.418;2024-03-23T05:21:30;36.20;;;24.38;;
40755;SDS011;26461;45.630;9.418;2024-03-23T05:24:34;40.85;;;23.42;;
40755;SDS011;26461;45.630;9.418;2024-03-23T05:27:38;42.83;;;26.17;;
40755;SDS011;26461;45.630;9.418;2024-03-23T05:30:42;43.33;;;24.42;;
40755;SDS011;26461;45.630;9.418;2024-03-23T05:33:47;43.30;;;28.27;;
40755;SDS011;26461;45.630;9.418;2024-03-23T05:36:51;44.45;;;26.17;;
40755;SDS011;26461;45.630;9.418;2024-03-23T05:39:55;39.55;;;23.58;;
40755;SDS011;26461;45.630;9.418;2024-03-23T05:43:00;40.13;;;24.83;;
40755;SDS011;26461;45.630;9.418;2024-03-23T05:46:04;43.33;;;25.42;;
40755;SDS011;26461;45.630;9.418;2024-03-23T05:49:12;40.60;;;23.65;;
40755;SDS011;26461;45.630;9.418;2024-03-23T05:52:16;43.97;;;26.25;;
40755;SDS011;26461;45.630;9.418;2024-03-23T05:55:20;42.40;;;21.67;;
40755;SDS011;26461;45.630;9.418;2024-03-23T05:58:25;41.80;;;25.15;;
40755;SDS011;26461;45.630;9.418;2024-03-23T06:01:30;35.83;;;23.98;;
40755;SDS011;26461;45.630;9.418;2024-03-23T06:04:36;46.22;;;25.48;;
40755;SDS011;26461;45.630;9.418;2024-03-23T06:07:41;44.92;;;25.88;;
40755;SDS011;26461;45.630;9.418;2024-03-23T06:10:46;44.38;;;23.30;;
40755;SDS011;26461;45.630;9.418;2024-03-23T06:13:50;43.85;;;26.33;;
40755;SDS011;26461;45.630;9.418;2024-03-23T06:16:54;35.90;;;25.40;;
40755;SDS011;26461;45.630;9.418;2024-03-23T06:19:58;37.22;;;24.65;;
40755;SDS011;26461;45.630;9.418;2024-03-23T06:23:03;44.40;;;25.80;;
40755;SDS011;26461;45.630;9.418;2024-03-23T06:26:07;43.35;;;23.15;;
40755;SDS011;26461;45.630;9.418;2024-03-23T06:29:12;41.67;;;24.80;;
40755;SDS011;26461;45.630;9.418;2024-03-23T06:32:17;39.95;;;22.77;;
40755;SDS011;26461;45.630;9.418;2024-03-23T06:35:21;39.83;;;22.90;;
40755;SDS011;26461;45.630;9.418;2024-03-23T06:38:26;43.40;;;23.75;;
40755;SDS011;26461;45.630;9.418;2024-03-23T06:41:30;41.80;;;23.50;;
40755;SDS011;26461;45.630;9.418;2024-03-23T06:44:34;35.08;;;21.30;;
40755;SDS011;26461;45.630;9.418;2024-03-23T06:47:39;39.05;;;22.80;;
40755;SDS011;26461;45.630;9.418;2024-03-23T06:50:43;35.10;;;21.33;;
40755;SDS011;26461;45.630;9.418;2024-03-23T06:53:49;36.10;;;22.30;;
40755;SDS011;26461;45.630;9.418;2024-03-23T06:56:53;43.45;;;24.33;;
40755;SDS011;26461;45.630;9.418;2024-03-23T06:59:57;39.90;;;23.58;;
40755;SDS011;26461;45.630;9.418;2024-03-23T07:03:01;41.20;;;25.00;;
40755;SDS011;26461;45.630;9.418;2024-03-23T07:06:09;42.28;;;24.08;;
40755;SDS011;26461;45.630;9.418;2024-03-23T07:09:14;47.20;;;24.65;;
40755;SDS011;26461;45.630;9.418;2024-03-23T07:12:18;47.30;;;24.70;;
40755;SDS011;26461;45.630;9.418;2024-03-23T07:15:25;39.28;;;24.38;;
40755;SDS011;26461;45.630;9.418;2024-03-23T07:18:29;46.08;;;26.98;;
40755;SDS011;26461;45.630;9.418;2024-03-23T07:21:33;47.58;;;27.10;;
40755;SDS011;26461;45.630;9.418;2024-03-23T07:24:38;53.30;;;30.95;;
40755;SDS011;26461;45.630;9.418;2024-03-23T07:27:44;51.47;;;30.48;;
40755;SDS011;26461;45.630;9.418;2024-03-23T07:30:48;56.53;;;33.10;;
40755;SDS011;26461;45.630;9.418;2024-03-23T07:34:01;52.97;;;31.55;;
40755;SDS011;26461;45.630;9.418;2024-03-23T07:37:06;54.00;;;31.38;;
40755;SDS011;26461;45.630;9.418;2024-03-23T07:40:10;51.10;;;30.17;;
40755;SDS011;26461;45.630;9.418;2024-03-23T07:43:15;52.40;;;30.50;;
40755;SDS011;26461;45.630;9.418;2024-03-23T07:46:20;48.15;;;29.85;;
40755;SDS011;26461;45.630;9.418;2024-03-23T07:49:24;44.75;;;27.67;;
40755;SDS011;26461;45.630;9.418;2024-03-23T07:52:29;48.88;;;29.70;;
40755;SDS011;26461;45.630;9.418;2024-03-23T07:55:34;44.90;;;26.23;;
40755;SDS011;26461;45.630;9.418;2024-03-23T07:58:38;45.47;;;23.15;;
40755;SDS011;26461;45.630;9.418;2024-03-23T08:01:42;38.42;;;23.55;;
40755;SDS011;26461;45.630;9.418;2024-03-23T08:04:47;35.88;;;21.50;;
40755;SDS011;26461;45.630;9.418;2024-03-23T08:07:50;29.77;;;17.23;;
40755;SDS011;26461;45.630;9.418;2024-03-23T08:10:55;20.20;;;13.95;;
40755;SDS011;26461;45.630;9.418;2024-03-23T08:14:00;34.10;;;17.20;;
40755;SDS011;26461;45.630;9.418;2024-03-23T08:17:08;26.42;;;18.80;;
40755;SDS011;26461;45.630;9.418;2024-03-23T08:20:20;29.92;;;17.60;;
40755;SDS011;26461;45.630;9.418;2024-03-23T08:23:27;26.75;;;16.95;;
40755;SDS011;26461;45.630;9.418;2024-03-23T08:26:33;25.30;;;15.23;;
40755;SDS011;26461;45.630;9.418;2024-03-23T08:29:37;18.52;;;11.75;;
40755;SDS011;26461;45.630;9.418;2024-03-23T08:32:41;21.92;;;13.10;;
40755;SDS011;26461;45.630;9.418;2024-03-23T08:35:55;18.73;;;14.20;;
40755;SDS011;26461;45.630;9.418;2024-03-23T08:39:01;20.80;;;13.57;;
40755;SDS011;26461;45.630;9.418;2024-03-23T08:42:05;21.80;;;13.60;;
40755;SDS011;26461;45.630;9.418;2024-03-23T08:45:10;20.92;;;13.45;;
40755;SDS011;26461;45.630;9.418;2024-03-23T08:48:14;26.50;;;13.90;;
40755;SDS011;26461;45.630;9.418;2024-03-23T08:51:18;19.15;;;13.60;;
40755;SDS011;26461;45.630;9.418;2024-03-23T08:54:23;32.42;;;14.82;;
40755;SDS011;26461;45.630;9.418;2024-03-23T08:57:27;22.95;;;14.45;;
40755;SDS011;26461;45.630;9.418;2024-03-23T09:00:31;22.55;;;14.77;;
40755;SDS011;26461;45.630;9.418;2024-03-23T09:03:36;25.35;;;14.32;;
40755;SDS011;26461;45.630;9.418;2024-03-23T09:06:44;24.40;;;14.25;;
40755;SDS011;26461;45.630;9.418;2024-03-23T09:09:48;21.50;;;14.18;;
40755;SDS011;26461;45.630;9.418;2024-03-23T09:12:53;20.17;;;14.32;;
40755;SDS011;26461;45.630;9.418;2024-03-23T09:15:58;25.92;;;15.88;;
40755;SDS011;26461;45.630;9.418;2024-03-23T09:19:02;22.42;;;12.57;;
40755;SDS011;26461;45.630;9.418;2024-03-23T09:22:06;20.77;;;13.23;;
40755;SDS011;26461;45.630;9.418;2024-03-23T09:25:11;20.85;;;13.65;;
40755;SDS011;26461;45.630;9.418;2024-03-23T09:28:16;24.40;;;14.18;;
40755;SDS011;26461;45.630;9.418;2024-03-23T09:31:20;22.70;;;13.82;;
40755;SDS011;26461;45.630;9.418;2024-03-23T09:34:26;19.85;;;13.90;;
40755;SDS011;26461;45.630;9.418;2024-03-23T09:37:30;22.25;;;13.15;;
40755;SDS011;26461;45.630;9.418;2024-03-23T09:40:38;21.48;;;13.30;;
40755;SDS011;26461;45.630;9.418;2024-03-23T09:43:45;20.17;;;12.43;;
40755;SDS011;26461;45.630;9.418;2024-03-23T09:46:51;22.55;;;11.60;;
40755;SDS011;26461;45.630;9.418;2024-03-23T09:49:56;17.25;;;11.05;;
40755;SDS011;26461;45.630;9.418;2024-03-23T09:53:01;17.58;;;11.00;;
40755;SDS011;26461;45.630;9.418;2024-03-23T09:56:06;16.52;;;11.38;;
40755;SDS011;26461;45.630;9.418;2024-03-23T09:59:12;22.92;;;12.88;;
40755;SDS011;26461;45.630;9.418;2024-03-23T10:02:16;19.55;;;11.60;;
40755;SDS011;26461;45.630;9.418;2024-03-23T10:05:23;16.17;;;11.10;;
40755;SDS011;26461;45.630;9.418;2024-03-23T10:08:28;17.73;;;12.38;;
40755;SDS011;26461;45.630;9.418;2024-03-23T10:11:33;15.30;;;10.65;;
40755;SDS011;26461;45.630;9.418;2024-03-23T10:14:38;18.08;;;11.70;;
40755;SDS011;26461;45.630;9.418;2024-03-23T10:17:47;15.13;;;11.00;;
40755;SDS011;26461;45.630;9.418;2024-03-23T10:24:17;13.80;;;10.55;;
40755;SDS011;26461;45.630;9.418;2024-03-23T10:27:21;16.17;;;10.20;;
40755;SDS011;26461;45.630;9.418;2024-03-23T10:30:26;16.65;;;10.70;;
40755;SDS011;26461;45.630;9.418;2024-03-23T10:33:31;21.77;;;11.35;;
40755;SDS011;26461;45.630;9.418;2024-03-23T10:36:36;18.35;;;12.05;;
40755;SDS011;26461;45.630;9.418;2024-03-23T10:39:44;14.93;;;11.25;;
40755;SDS011;26461;45.630;9.418;2024-03-23T10:42:48;15.25;;;10.32;;
40755;SDS011;26461;45.630;9.418;2024-03-23T10:45:53;17.92;;;10.98;;
40755;SDS011;26461;45.630;9.418;2024-03-23T10:48:57;20.67;;;12.65;;
40755;SDS011;26461;45.630;9.418;2024-03-23T10:52:03;19.90;;;12.20;;
40755;SDS011;26461;45.630;9.418;2024-03-23T10:55:08;20.88;;;12.43;;
40755;SDS011;26461;45.630;9.418;2024-03-23T10:58:14;18.55;;;10.40;;
40755;SDS011;26461;45.630;9.418;2024-03-23T11:01:20;21.85;;;12.50;;
40755;SDS011;26461;45.630;9.418;2024-03-23T11:07:38;18.70;;;12.48;;
40755;SDS011;26461;45.630;9.418;2024-03-23T11:10:42;20.67;;;13.95;;
40755;SDS011;26461;45.630;9.418;2024-03-23T11:13:48;18.13;;;12.85;;
40755;SDS011;26461;45.630;9.418;2024-03-23T11:17:08;20.60;;;12.43;;
40755;SDS011;26461;45.630;9.418;2024-03-23T11:20:14;22.27;;;12.13;;
40755;SDS011;26461;45.630;9.418;2024-03-23T11:23:27;19.40;;;13.15;;
40755;SDS011;26461;45.630;9.418;2024-03-23T11:26:32;23.58;;;12.75;;
40755;SDS011;26461;45.630;9.418;2024-03-23T11:29:42;21.55;;;12.43;;
40755;SDS011;26461;45.630;9.418;2024-03-23T11:32:46;17.25;;;11.65;;
40755;SDS011;26461;45.630;9.418;2024-03-23T11:35:52;21.90;;;12.55;;
40755;SDS011;26461;45.630;9.418;2024-03-23T11:38:56;21.17;;;12.13;;
40755;SDS011;26461;45.630;9.418;2024-03-23T11:42:01;18.63;;;12.65;;
40755;SDS011;26461;45.630;9.418;2024-03-23T11:45:09;17.67;;;10.65;;
40755;SDS011;26461;45.630;9.418;2024-03-23T11:48:14;17.58;;;10.35;;
40755;SDS011;26461;45.630;9.418;2024-03-23T11:51:22;18.75;;;11.10;;
40755;SDS011;26461;45.630;9.418;2024-03-23T11:54:27;19.27;;;13.32;;
40755;SDS011;26461;45.630;9.418;2024-03-23T11:57:31;25.52;;;13.68;;
40755;SDS011;26461;45.630;9.418;2024-03-23T12:00:36;21.00;;;13.63;;
40755;SDS011;26461;45.630;9.418;2024-03-23T12:03:43;22.70;;;15.05;;
40755;SDS011;26461;45.630;9.418;2024-03-23T12:06:48;18.90;;;12.52;;
40755;SDS011;26461;45.630;9.418;2024-03-23T12:10:05;23.85;;;14.57;;
40755;SDS011;26461;45.630;9.418;2024-03-23T12:13:10;20.75;;;14.35;;
40755;SDS011;26461;45.630;9.418;2024-03-23T12:16:19;26.65;;;15.35;;
40755;SDS011;26461;45.630;9.418;2024-03-23T12:19:24;20.27;;;13.88;;
40755;SDS011;26461;45.630;9.418;2024-03-23T12:22:28;25.05;;;15.52;;
40755;SDS011;26461;45.630;9.418;2024-03-23T12:25:35;18.85;;;13.43;;
40755;SDS011;26461;45.630;9.418;2024-03-23T12:28:40;21.35;;;13.20;;
40755;SDS011;26461;45.630;9.418;2024-03-23T12:31:45;21.08;;;14.30;;
40755;SDS011;26461;45.630;9.418;2024-03-23T12:34:49;22.60;;;15.00;;
40755;SDS011;26461;45.630;9.418;2024-03-23T12:37:53;28.50;;;15.90;;
40755;SDS011;26461;45.630;9.418;2024-03-23T12:40:57;22.73;;;14.73;;
40755;SDS011;26461;45.630;9.418;2024-03-23T12:44:01;22.73;;;14.30;;
40755;SDS011;26461;45.630;9.418;2024-03-23T12:47:05;23.83;;;15.20;;
40755;SDS011;26461;45.630;9.418;2024-03-23T12:50:09;25.20;;;15.52;;
40755;SDS011;26461;45.630;9.418;2024-03-23T12:53:14;21.17;;;13.82;;
40755;SDS011;26461;45.630;9.418;2024-03-23T12:56:19;25.15;;;17.45;;
40755;SDS011;26461;45.630;9.418;2024-03-23T12:59:23;21.38;;;14.98;;
40755;SDS011;26461;45.630;9.418;2024-03-23T13:02:27;24.45;;;14.43;;
40755;SDS011;26461;45.630;9.418;2024-03-23T13:05:32;20.35;;;15.07;;
40755;SDS011;26461;45.630;9.418;2024-03-23T13:08:37;25.00;;;14.68;;
40755;SDS011;26461;45.630;9.418;2024-03-23T13:11:41;21.75;;;15.82;;
40755;SDS011;26461;45.630;9.418;2024-03-23T13:14:46;28.83;;;15.82;;
40755;SDS011;26461;45.630;9.418;2024-03-23T13:17:51;25.30;;;16.08;;
40755;SDS011;26461;45.630;9.418;2024-03-23T13:20:58;27.50;;;16.75;;
40755;SDS011;26461;45.630;9.418;2024-03-23T13:24:02;24.88;;;16.77;;
40755;SDS011;26461;45.630;9.418;2024-03-23T13:27:11;35.67;;;18.75;;
40755;SDS011;26461;45.630;9.418;2024-03-23T13:30:15;29.92;;;18.35;;
40755;SDS011;26461;45.630;9.418;2024-03-23T13:33:19;27.98;;;20.40;;
40755;SDS011;26461;45.630;9.418;2024-03-23T13:36:24;30.88;;;19.27;;
40755;SDS011;26461;45.630;9.418;2024-03-23T13:39:30;29.20;;;20.48;;
40755;SDS011;26461;45.630;9.418;2024-03-23T13:42:34;29.73;;;19.08;;
40755;SDS011;26461;45.630;9.418;2024-03-23T13:45:39;23.70;;;18.83;;
40755;SDS011;26461;45.630;9.418;2024-03-23T13:48:43;34.40;;;20.30;;
40755;SDS011;26461;45.630;9.418;2024-03-23T13:51:48;30.67;;;18.92;;
40755;SDS011;26461;45.630;9.418;2024-03-23T13:54:53;32.10;;;18.58;;
40755;SDS011;26461;45.630;9.418;2024-03-23T13:57:57;29.10;;;19.58;;
40755;SDS011;26461;45.630;9.418;2024-03-23T14:01:02;29.60;;;19.63;;
40755;SDS011;26461;45.630;9.418;2024-03-23T14:04:07;33.28;;;18.95;;
40755;SDS011;26461;45.630;9.418;2024-03-23T14:07:11;27.83;;;18.33;;
40755;SDS011;26461;45.630;9.418;2024-03-23T14:10:15;29.65;;;18.23;;
40755;SDS011;26461;45.630;9.418;2024-03-23T14:13:20;36.50;;;19.38;;
40755;SDS011;26461;45.630;9.418;2024-03-23T14:16:24;26.98;;;18.05;;
40755;SDS011;26461;45.630;9.418;2024-03-23T14:19:28;28.70;;;18.05;;
40755;SDS011;26461;45.630;9.418;2024-03-23T14:22:33;31.73;;;19.13;;
40755;SDS011;26461;45.630;9.418;2024-03-23T14:25:37;33.10;;;20.58;;
40755;SDS011;26461;45.630;9.418;2024-03-23T14:28:41;24.85;;;17.90;;
40755;SDS011;26461;45.630;9.418;2024-03-23T14:31:46;28.52;;;18.42;;
40755;SDS011;26461;45.630;9.418;2024-03-23T14:34:50;31.90;;;20.70;;
40755;SDS011;26461;45.630;9.418;2024-03-23T14:37:55;36.03;;;20.42;;
40755;SDS011;26461;45.630;9.418;2024-03-23T14:41:00;30.70;;;17.95;;
40755;SDS011;26461;45.630;9.418;2024-03-23T14:44:06;27.02;;;18.25;;
40755;SDS011;26461;45.630;9.418;2024-03-23T14:47:10;33.42;;;20.20;;
40755;SDS011;26461;45.630;9.418;2024-03-23T14:50:15;35.53;;;20.05;;
40755;SDS011;26461;45.630;9.418;2024-03-23T14:53:19;24.55;;;16.15;;
40755;SDS011;26461;45.630;9.418;2024-03-23T14:56:24;30.15;;;17.80;;
40755;SDS011;26461;45.630;9.418;2024-03-23T14:59:29;31.13;;;17.83;;
40755;SDS011;26461;45.630;9.418;2024-03-23T15:02:34;30.65;;;17.73;;
40755;SDS011;26461;45.630;9.418;2024-03-23T15:05:38;25.90;;;17.25;;
40755;SDS011;26461;45.630;9.418;2024-03-23T15:08:42;28.80;;;16.17;;
40755;SDS011;26461;45.630;9.418;2024-03-23T15:11:46;29.50;;;17.75;;
40755;SDS011;26461;45.630;9.418;2024-03-23T15:14:51;23.30;;;15.13;;
40755;SDS011;26461;45.630;9.418;2024-03-23T15:17:55;27.50;;;16.05;;
40755;SDS011;26461;45.630;9.418;2024-03-23T15:21:00;26.95;;;14.15;;
40755;SDS011;26461;45.630;9.418;2024-03-23T15:24:10;23.67;;;14.55;;
40755;SDS011;26461;45.630;9.418;2024-03-23T15:27:17;25.70;;;15.00;;
40755;SDS011;26461;45.630;9.418;2024-03-23T15:30:21;21.27;;;14.45;;
40755;SDS011;26461;45.630;9.418;2024-03-23T15:33:25;25.13;;;16.55;;
40755;SDS011;26461;45.630;9.418;2024-03-23T15:36:30;25.77;;;16.42;;
40755;SDS011;26461;45.630;9.418;2024-03-23T15:39:35;20.73;;;14.70;;
40755;SDS011;26461;45.630;9.418;2024-03-23T15:42:40;21.35;;;15.65;;
40755;SDS011;26461;45.630;9.418;2024-03-23T15:45:44;23.65;;;15.32;;
40755;SDS011;26461;45.630;9.418;2024-03-23T15:48:57;28.65;;;17.10;;
40755;SDS011;26461;45.630;9.418;2024-03-23T15:52:02;23.40;;;14.80;;
40755;SDS011;26461;45.630;9.418;2024-03-23T15:55:06;23.58;;;15.45;;
40755;SDS011;26461;45.630;9.418;2024-03-23T15:58:11;29.77;;;17.25;;
40755;SDS011;26461;45.630;9.418;2024-03-23T16:01:16;27.73;;;15.43;;
40755;SDS011;26461;45.630;9.418;2024-03-23T16:04:21;27.00;;;17.00;;
40755;SDS011;26461;45.630;9.418;2024-03-23T16:07:25;26.40;;;17.58;;
40755;SDS011;26461;45.630;9.418;2024-03-23T16:10:30;23.23;;;16.08;;
40755;SDS011;26461;45.630;9.418;2024-03-23T16:13:35;25.45;;;16.27;;
40755;SDS011;26461;45.630;9.418;2024-03-23T16:16:39;25.42;;;17.50;;
40755;SDS011;26461;45.630;9.418;2024-03-23T16:19:43;30.30;;;15.85;;
40755;SDS011;26461;45.630;9.418;2024-03-23T16:22:48;26.60;;;15.50;;
40755;SDS011;26461;45.630;9.418;2024-03-23T16:25:53;28.38;;;17.05;;
40755;SDS011;26461;45.630;9.418;2024-03-23T16:29:01;27.10;;;15.98;;
40755;SDS011;26461;45.630;9.418;2024-03-23T16:32:05;28.70;;;17.35;;
40755;SDS011;26461;45.630;9.418;2024-03-23T16:35:09;28.73;;;16.10;;
40755;SDS011;26461;45.630;9.418;2024-03-23T16:38:16;24.65;;;15.43;;
40755;SDS011;26461;45.630;9.418;2024-03-23T16:41:20;23.15;;;16.05;;
40755;SDS011;26461;45.630;9.418;2024-03-23T16:44:25;27.52;;;17.05;;
40755;SDS011;26461;45.630;9.418;2024-03-23T16:47:30;25.45;;;16.92;;
40755;SDS011;26461;45.630;9.418;2024-03-23T16:50:35;25.60;;;15.63;;
40755;SDS011;26461;45.630;9.418;2024-03-23T16:53:39;24.48;;;16.17;;
40755;SDS011;26461;45.630;9.418;2024-03-23T16:56:44;23.23;;;15.05;;
40755;SDS011;26461;45.630;9.418;2024-03-23T16:59:48;25.13;;;16.02;;
40755;SDS011;26461;45.630;9.418;2024-03-23T17:02:53;29.90;;;17.10;;
40755;SDS011;26461;45.630;9.418;2024-03-23T17:05:57;23.00;;;16.42;;
40755;SDS011;26461;45.630;9.418;2024-03-23T17:09:02;27.38;;;17.58;;
40755;SDS011;26461;45.630;9.418;2024-03-23T17:12:09;28.85;;;17.52;;
40755;SDS011;26461;45.630;9.418;2024-03-23T17:15:13;27.23;;;17.75;;
40755;SDS011;26461;45.630;9.418;2024-03-23T17:18:19;25.20;;;15.93;;
40755;SDS011;26461;45.630;9.418;2024-03-23T17:21:23;30.90;;;19.13;;
40755;SDS011;26461;45.630;9.418;2024-03-23T17:24:27;26.08;;;17.95;;
40755;SDS011;26461;45.630;9.418;2024-03-23T17:27:31;29.15;;;16.90;;
40755;SDS011;26461;45.630;9.418;2024-03-23T17:30:35;28.25;;;16.95;;
40755;SDS011;26461;45.630;9.418;2024-03-23T17:33:40;29.30;;;18.15;;
40755;SDS011;26461;45.630;9.418;2024-03-23T17:36:44;23.33;;;14.75;;
40755;SDS011;26461;45.630;9.418;2024-03-23T17:39:48;29.10;;;17.33;;
40755;SDS011;26461;45.630;9.418;2024-03-23T17:42:53;26.63;;;16.42;;
40755;SDS011;26461;45.630;9.418;2024-03-23T17:45:57;24.50;;;16.70;;
40755;SDS011;26461;45.630;9.418;2024-03-23T17:49:02;35.90;;;23.65;;
40755;SDS011;26461;45.630;9.418;2024-03-23T17:52:09;34.40;;;25.10;;
40755;SDS011;26461;45.630;9.418;2024-03-23T17:55:14;35.75;;;21.33;;
40755;SDS011;26461;45.630;9.418;2024-03-23T17:58:19;38.75;;;23.33;;
40755;SDS011;26461;45.630;9.418;2024-03-23T18:01:23;35.10;;;24.27;;
40755;SDS011;26461;45.630;9.418;2024-03-23T18:04:27;41.30;;;29.52;;
40755;SDS011;26461;45.630;9.418;2024-03-23T18:07:32;40.10;;;26.02;;
40755;SDS011;26461;45.630;9.418;2024-03-23T18:10:37;30.77;;;21.50;;
40755;SDS011;26461;45.630;9.418;2024-03-23T18:13:41;34.13;;;21.08;;
40755;SDS011;26461;45.630;9.418;2024-03-23T18:16:46;27.35;;;19.42;;
40755;SDS011;26461;45.630;9.418;2024-03-23T18:19:52;27.50;;;20.58;;
40755;SDS011;26461;45.630;9.418;2024-03-23T18:22:57;29.08;;;19.90;;
40755;SDS011;26461;45.630;9.418;2024-03-23T18:26:01;33.22;;;19.80;;
40755;SDS011;26461;45.630;9.418;2024-03-23T18:29:06;34.22;;;21.42;;
40755;SDS011;26461;45.630;9.418;2024-03-23T18:32:11;30.73;;;20.20;;
40755;SDS011;26461;45.630;9.418;2024-03-23T18:35:16;28.98;;;19.95;;
40755;SDS011;26461;45.630;9.418;2024-03-23T18:38:20;35.53;;;20.83;;
40755;SDS011;26461;45.630;9.418;2024-03-23T18:41:24;32.97;;;21.35;;
40755;SDS011;26461;45.630;9.418;2024-03-23T18:44:28;30.73;;;18.38;;
40755;SDS011;26461;45.630;9.418;2024-03-23T18:47:33;28.73;;;18.67;;
40755;SDS011;26461;45.630;9.418;2024-03-23T18:50:37;33.28;;;18.38;;
40755;SDS011;26461;45.630;9.418;2024-03-23T18:53:41;34.42;;;23.92;;
40755;SDS011;26461;45.630;9.418;2024-03-23T18:56:45;37.15;;;23.80;;
40755;SDS011;26461;45.630;9.418;2024-03-23T18:59:50;35.00;;;24.00;;